createdAt,value
2022-12-08T00:01:53.400Z,0.48
2022-12-08T00:04:21.469Z,0.24
2022-12-08T00:07:08.018Z,0.51
2022-12-08T00:09:41.930Z,0.48
2022-12-08T00:12:13.492Z,0.48
2022-12-08T00:14:45.091Z,0.47
2022-12-08T00:17:15.196Z,0.47
2022-12-08T00:19:44.010Z,0.25
2022-12-08T00:22:13.769Z,0.44
2022-12-08T00:24:44.910Z,0.46
2022-12-08T00:27:16.319Z,0.33
2022-12-08T00:29:45.690Z,0.40
2022-12-08T00:32:13.748Z,0.41
2022-12-08T00:34:41.859Z,0.27
2022-12-08T00:37:09.668Z,-0.19
2022-12-08T00:39:37.585Z,0.06
2022-12-08T00:42:14.986Z,0.31
2022-12-08T00:44:45.004Z,0.24
2022-12-08T00:47:14.145Z,0.30
2022-12-08T00:49:42.535Z,0.06
2022-12-08T00:52:10.704Z,0.33
2022-12-08T00:54:38.555Z,0.39
2022-12-08T00:57:06.821Z,0.37
2022-12-08T00:59:34.941Z,0.42
2022-12-08T01:02:02.916Z,0.11
2022-12-08T01:04:30.944Z,0.38
2022-12-08T01:06:59.291Z,0.42
2022-12-08T01:09:27.315Z,0.44
2022-12-08T01:12:04.395Z,0.39
2022-12-08T01:17:45.383Z,0.35
2022-12-08T01:20:13.305Z,0.35
2022-12-08T01:22:41.205Z,0.35
2022-12-08T01:25:09.494Z,0.29
2022-12-08T01:27:37.418Z,0.27
2022-12-08T01:30:06.808Z,-0.33
2022-12-08T01:32:35.218Z,0.29
2022-12-08T01:35:03.047Z,0.25
2022-12-08T01:37:30.868Z,0.25
2022-12-08T01:39:59.193Z,0.08
2022-12-08T01:42:27.182Z,0.30
2022-12-08T01:45:13.681Z,0.32
2022-12-08T01:47:47.234Z,0.35
2022-12-08T01:50:18.569Z,0.32
2022-12-08T01:53:12.830Z,0.32
2022-12-08T01:55:50.224Z,0.08
2022-12-08T01:58:50.001Z,0.36
2022-12-08T02:01:18.239Z,0.26
2022-12-08T02:04:05.276Z,0.08
2022-12-08T02:06:41.579Z,0.35
2022-12-08T02:09:09.763Z,0.36
2022-12-08T02:11:37.771Z,0.10
2022-12-08T02:14:10.359Z,0.38
2022-12-08T02:17:31.586Z,0.42
2022-12-08T02:20:29.956Z,0.20
2022-12-08T02:23:28.361Z,0.47
2022-12-08T02:26:17.869Z,0.52
2022-12-08T02:28:58.144Z,0.58
2022-12-08T02:32:14.347Z,0.63
2022-12-08T02:34:54.921Z,0.64
2022-12-08T02:38:08.100Z,0.71
2022-12-08T02:40:59.700Z,0.74
2022-12-08T02:43:42.497Z,0.69
2022-12-08T02:46:19.371Z,0.55
2022-12-08T02:48:51.424Z,0.67
2022-12-08T02:51:19.924Z,0.84
2022-12-08T02:53:48.748Z,0.81
2022-12-08T02:56:40.694Z,0.83
2022-12-08T02:59:32.367Z,0.87
2022-12-08T03:02:16.784Z,0.75
2022-12-08T03:04:54.916Z,0.81
2022-12-08T03:08:00.601Z,0.85
2022-12-08T03:11:04.059Z,0.82
2022-12-08T03:13:55.011Z,0.80
2022-12-08T03:16:30.104Z,0.76
2022-12-08T03:19:08.895Z,0.73
2022-12-08T03:22:42.452Z,0.72
2022-12-08T03:25:15.171Z,0.74
2022-12-08T03:27:43.702Z,0.76
2022-12-08T03:30:12.189Z,0.94
2022-12-08T03:33:05.056Z,0.74
2022-12-08T03:35:37.405Z,0.88
2022-12-08T03:38:12.958Z,0.80
2022-12-08T03:40:42.271Z,0.77
2022-12-08T03:43:10.694Z,0.63
2022-12-08T03:45:38.612Z,0.78
2022-12-08T03:48:06.604Z,0.85
2022-12-08T03:50:34.382Z,0.85
2022-12-08T03:53:02.495Z,0.85
2022-12-08T03:55:30.331Z,0.86
2022-12-08T03:57:58.181Z,0.69
2022-12-08T04:00:26.195Z,0.88
2022-12-08T04:02:54.711Z,0.79
2022-12-08T04:05:22.619Z,0.85
2022-12-08T04:07:50.729Z,0.65
2022-12-08T04:10:18.623Z,0.59
2022-12-08T04:12:46.406Z,0.82
2022-12-08T04:15:14.872Z,0.79
2022-12-08T04:17:42.755Z,0.80
2022-12-08T04:20:11.401Z,0.74
2022-12-08T04:22:39.445Z,0.74
2022-12-08T04:25:07.975Z,0.79
2022-12-08T04:27:35.733Z,0.79
2022-12-08T04:30:04.405Z,0.58
2022-12-08T04:32:32.597Z,0.76
2022-12-08T04:35:00.425Z,0.80
2022-12-08T04:37:29.045Z,0.76
2022-12-08T04:39:57.383Z,0.57
2022-12-08T04:42:25.195Z,0.78
2022-12-08T04:44:53.219Z,0.74
2022-12-08T04:47:22.284Z,0.69
2022-12-08T04:49:50.078Z,0.66
2022-12-08T04:52:18.067Z,0.64
2022-12-08T04:54:46.117Z,0.34
2022-12-08T04:57:14.171Z,0.62
2022-12-08T04:59:42.195Z,0.59
2022-12-08T05:02:10.427Z,0.57
2022-12-08T05:04:38.395Z,0.57
2022-12-08T05:07:06.710Z,0.28
2022-12-08T05:09:34.691Z,0.29
2022-12-08T05:12:04.114Z,0.27
2022-12-08T05:14:31.979Z,0.51
2022-12-08T05:17:03.629Z,0.52
2022-12-08T05:19:34.195Z,0.58
2022-12-08T05:22:02.240Z,0.61
2022-12-08T05:24:30.242Z,0.51
2022-12-08T05:26:58.206Z,0.64
2022-12-08T05:29:26.244Z,0.42
2022-12-08T05:31:54.209Z,0.63
2022-12-08T05:34:22.357Z,0.43
2022-12-08T05:36:50.326Z,0.72
2022-12-08T05:39:18.324Z,0.71
2022-12-08T05:41:46.293Z,0.73
2022-12-08T05:44:14.242Z,0.63
2022-12-08T05:46:42.217Z,0.77
2022-12-08T05:49:10.243Z,0.54
2022-12-08T05:51:38.185Z,0.55
2022-12-08T05:54:06.070Z,0.76
2022-12-08T05:56:34.318Z,0.53
2022-12-08T05:59:02.409Z,0.75
2022-12-08T06:01:32.097Z,0.81
2022-12-08T06:04:02.872Z,0.79
2022-12-08T06:06:31.637Z,0.58
2022-12-08T06:09:01.759Z,0.78
2022-12-08T06:11:33.031Z,0.93
2022-12-08T06:14:01.444Z,0.67
2022-12-08T06:16:31.106Z,0.75
2022-12-08T06:18:59.976Z,0.98
2022-12-08T06:21:27.988Z,1.00
2022-12-08T06:23:55.957Z,0.19
2022-12-08T06:26:24.312Z,1.03
2022-12-08T06:28:52.597Z,0.99
2022-12-08T06:31:26.093Z,1.04
2022-12-08T06:33:58.070Z,0.78
2022-12-08T06:36:28.877Z,0.95
2022-12-08T06:38:57.133Z,1.00
2022-12-08T06:41:26.072Z,0.56
2022-12-08T06:43:59.703Z,0.95
2022-12-08T06:46:27.635Z,0.92
2022-12-08T06:48:57.119Z,0.95
2022-12-08T06:51:25.271Z,1.02
2022-12-08T06:53:53.164Z,1.04
2022-12-08T06:56:24.057Z,0.94
2022-12-08T06:58:52.936Z,0.31
2022-12-08T07:01:21.219Z,1.01
2022-12-08T07:03:49.238Z,1.02
2022-12-08T07:06:22.734Z,0.80
2022-12-08T07:08:51.015Z,1.02
2022-12-08T07:11:22.034Z,1.01
2022-12-08T07:13:51.579Z,0.95
2022-12-08T07:16:19.868Z,0.98
2022-12-08T07:18:47.891Z,0.95
2022-12-08T07:21:17.388Z,0.85
2022-12-08T07:23:54.406Z,0.88
2022-12-08T07:26:27.081Z,0.84
2022-12-08T07:28:55.605Z,0.86
2022-12-08T07:31:25.798Z,0.86
2022-12-08T07:33:54.669Z,0.49
2022-12-08T07:36:23.300Z,0.92
2022-12-08T07:38:53.370Z,0.70
2022-12-08T07:41:25.196Z,0.84
2022-12-08T07:43:53.958Z,1.11
2022-12-08T07:46:24.359Z,0.93
2022-12-08T07:48:55.758Z,1.27
2022-12-08T07:51:25.193Z,1.40
2022-12-08T07:53:55.054Z,1.47
2022-12-08T07:56:25.353Z,1.49
2022-12-08T07:58:53.284Z,1.64
2022-12-08T08:01:30.243Z,1.77
2022-12-08T08:04:01.914Z,1.64
2022-12-08T08:06:31.785Z,1.82
2022-12-08T08:08:59.697Z,1.78
2022-12-08T08:11:27.612Z,1.87
2022-12-08T08:13:58.094Z,1.84
2022-12-08T08:16:26.077Z,1.80
2022-12-08T08:18:54.290Z,1.71
2022-12-08T08:21:44.239Z,1.68
2022-12-08T08:24:10.882Z,1.58
2022-12-08T08:26:39.359Z,1.61
2022-12-08T08:29:07.235Z,1.62
2022-12-08T08:31:35.397Z,1.64
2022-12-08T08:34:06.722Z,1.68
2022-12-08T08:36:34.799Z,1.47
2022-12-08T08:39:03.751Z,1.75
2022-12-08T08:41:32.073Z,1.46
2022-12-08T08:43:59.949Z,1.68
2022-12-08T08:46:27.900Z,1.63
2022-12-08T08:48:57.114Z,1.36
2022-12-08T08:51:25.193Z,1.64
2022-12-08T08:53:53.072Z,1.60
2022-12-08T08:56:21.366Z,1.39
2022-12-08T08:58:50.223Z,1.61
2022-12-08T09:01:22.433Z,1.63
2022-12-08T09:03:50.598Z,1.76
2022-12-08T09:06:19.265Z,1.86
2022-12-08T09:08:48.574Z,2.10
2022-12-08T09:11:18.818Z,2.42
2022-12-08T09:13:51.814Z,2.63
2022-12-08T09:16:20.272Z,2.69
2022-12-08T09:18:51.377Z,2.98
2022-12-08T09:21:26.084Z,2.96
2022-12-08T09:23:58.300Z,3.23
2022-12-08T09:26:28.626Z,3.22
2022-12-08T09:28:58.235Z,3.32
2022-12-08T09:31:26.326Z,3.24
2022-12-08T09:33:54.886Z,3.31
2022-12-08T09:36:23.271Z,3.21
2022-12-08T09:38:53.851Z,2.98
2022-12-08T09:41:50.421Z,3.10
2022-12-08T09:44:55.685Z,2.90
2022-12-08T09:47:35.714Z,2.92
2022-12-08T09:50:09.698Z,3.10
2022-12-08T09:52:47.495Z,3.02
2022-12-08T09:55:49.527Z,3.30
2022-12-08T09:59:00.226Z,3.37
2022-12-08T10:01:34.710Z,3.52
2022-12-08T10:04:03.120Z,3.55
2022-12-08T10:06:39.339Z,3.24
2022-12-08T10:09:32.649Z,3.85
2022-12-08T10:12:45.803Z,4.17
2022-12-08T10:15:39.330Z,4.38
2022-12-08T10:18:18.800Z,4.62
2022-12-08T10:20:50.479Z,4.77
2022-12-08T10:23:36.656Z,4.88
2022-12-08T10:26:15.724Z,4.94
2022-12-08T10:28:45.375Z,5.06
2022-12-08T10:31:25.589Z,4.96
2022-12-08T10:34:24.378Z,4.73
2022-12-08T10:36:58.579Z,4.35
2022-12-08T10:39:47.041Z,4.15
2022-12-08T10:42:14.991Z,3.96
2022-12-08T10:44:59.223Z,4.18
2022-12-08T10:47:29.924Z,4.19
2022-12-08T10:50:29.999Z,4.27
2022-12-08T10:53:29.673Z,4.12
2022-12-08T10:56:03.492Z,4.03
2022-12-08T10:58:44.556Z,3.96
2022-12-08T11:01:27.328Z,3.87
2022-12-08T11:04:03.562Z,4.55
2022-12-08T11:06:42.288Z,4.64
2022-12-08T11:09:37.475Z,4.74
2022-12-08T11:12:17.800Z,5.10
2022-12-08T11:14:46.197Z,5.02
2022-12-08T11:17:23.152Z,5.12
2022-12-08T11:20:05.240Z,4.54
2022-12-08T11:22:51.896Z,5.20
2022-12-08T11:25:27.913Z,5.27
2022-12-08T11:28:01.901Z,5.01
2022-12-08T11:30:41.047Z,4.80
2022-12-08T11:33:24.559Z,4.46
2022-12-08T11:36:05.366Z,4.51
2022-12-08T11:38:39.561Z,4.25
2022-12-08T11:41:39.679Z,4.11
2022-12-08T11:44:44.834Z,3.96
2022-12-08T11:47:26.437Z,3.58
2022-12-08T11:50:19.565Z,4.18
2022-12-08T11:52:51.710Z,4.64
2022-12-08T11:55:38.776Z,4.86
2022-12-08T11:58:24.214Z,5.11
2022-12-08T12:00:52.170Z,5.26
2022-12-08T12:03:33.968Z,5.34
2022-12-08T12:09:31.268Z,5.32
2022-12-08T12:12:39.939Z,5.16
2022-12-08T12:16:01.044Z,4.78
2022-12-08T12:18:31.665Z,5.37
2022-12-08T12:21:10.105Z,5.19
2022-12-08T12:23:45.690Z,5.14
2022-12-08T12:26:37.739Z,5.03
2022-12-08T12:29:19.033Z,4.68
2022-12-08T12:32:07.769Z,4.64
2022-12-08T12:35:00.841Z,4.38
2022-12-08T12:37:40.508Z,4.18
2022-12-08T12:40:18.177Z,4.10
2022-12-08T12:43:22.935Z,4.13
2022-12-08T12:45:50.919Z,3.85
2022-12-08T12:48:25.834Z,3.97
2022-12-08T12:50:57.743Z,3.49
2022-12-08T12:53:25.851Z,3.85
2022-12-08T12:56:03.842Z,3.56
2022-12-08T12:58:31.637Z,3.81
2022-12-08T13:01:11.747Z,3.74
2022-12-08T13:03:45.977Z,3.74
2022-12-08T13:06:21.755Z,3.42
2022-12-08T13:08:56.734Z,3.56
2022-12-08T13:11:25.224Z,3.38
2022-12-08T13:14:04.479Z,3.51
2022-12-08T13:16:37.565Z,3.46
2022-12-08T13:19:14.192Z,3.21
2022-12-08T13:21:43.985Z,3.25
2022-12-08T13:24:17.168Z,3.18
2022-12-08T13:26:46.932Z,3.09
2022-12-08T13:29:21.047Z,3.12
2022-12-08T13:32:01.201Z,3.10
2022-12-08T13:34:45.353Z,3.06
2022-12-08T13:37:16.308Z,3.12
2022-12-08T13:40:16.809Z,3.11
2022-12-08T13:43:04.724Z,2.95
2022-12-08T13:55:20.031Z,2.85
2022-12-08T13:57:35.486Z,2.89
2022-12-08T14:00:15.222Z,2.92
2022-12-08T14:02:48.223Z,2.89
2022-12-08T14:05:29.706Z,2.42
2022-12-08T14:08:03.354Z,2.93
2022-12-08T14:10:32.237Z,2.81
2022-12-08T14:13:10.824Z,2.90
2022-12-08T14:15:40.941Z,2.89
2022-12-08T14:18:32.132Z,2.92
2022-12-08T14:21:20.775Z,2.94
2022-12-08T14:23:49.429Z,2.84
2022-12-08T14:26:18.206Z,2.87
2022-12-08T14:28:46.157Z,2.62
2022-12-08T14:31:14.843Z,2.89
2022-12-08T14:33:43.374Z,2.66
2022-12-08T14:36:15.903Z,2.83
2022-12-08T14:38:46.022Z,2.74
2022-12-08T14:41:14.632Z,2.61
2022-12-08T14:43:43.220Z,2.80
2022-12-08T14:46:23.030Z,2.79
2022-12-08T14:48:51.126Z,2.64
2022-12-08T14:51:22.029Z,2.64
2022-12-08T14:53:59.071Z,2.63
2022-12-08T14:56:57.086Z,2.61
2022-12-08T14:59:38.175Z,2.72
2022-12-08T15:02:24.445Z,2.81
2022-12-08T15:05:02.183Z,2.57
2022-12-08T15:07:45.169Z,2.47
2022-12-08T15:10:15.775Z,2.76
2022-12-08T15:13:06.103Z,2.73
2022-12-08T15:15:57.921Z,2.77
2022-12-08T15:18:31.427Z,2.78
2022-12-08T15:21:05.502Z,2.76
2022-12-08T15:23:45.010Z,2.78
2022-12-08T15:26:23.206Z,2.77
2022-12-08T15:28:51.758Z,2.53
2022-12-08T15:31:19.953Z,2.51
2022-12-08T15:33:48.342Z,2.53
2022-12-08T15:36:16.583Z,2.78
2022-12-08T15:38:44.856Z,2.78
2022-12-08T15:41:15.090Z,2.78
2022-12-08T15:43:43.446Z,2.74
2022-12-08T15:46:12.913Z,2.79
2022-12-08T15:48:41.023Z,2.76
2022-12-08T15:51:09.019Z,2.74
2022-12-08T15:53:37.268Z,2.76
2022-12-08T15:58:57.693Z,2.72
2022-12-08T16:01:27.133Z,2.48
2022-12-08T16:09:43.784Z,2.72
2022-12-08T16:18:24.252Z,2.65
2022-12-08T16:21:19.071Z,2.65
2022-12-08T16:23:43.750Z,2.71
2022-12-08T16:29:19.879Z,2.71
2022-12-08T16:31:48.396Z,2.42
2022-12-08T16:34:16.209Z,2.48
2022-12-08T16:36:44.107Z,2.57
2022-12-08T16:39:14.694Z,2.57
2022-12-08T16:42:01.871Z,2.57
2022-12-08T16:44:30.438Z,2.59
2022-12-08T16:46:58.386Z,2.56
2022-12-08T16:49:26.215Z,2.58
2022-12-08T16:51:54.874Z,2.54
2022-12-08T16:54:22.659Z,2.55
2022-12-08T16:56:50.814Z,2.58
2022-12-08T16:59:18.968Z,2.59
2022-12-08T17:01:46.997Z,2.58
2022-12-08T17:04:30.861Z,2.59
2022-12-08T17:07:00.111Z,2.62
2022-12-08T17:09:28.794Z,2.62
2022-12-08T17:12:03.298Z,2.37
2022-12-08T17:14:35.421Z,2.59
2022-12-08T17:17:03.561Z,2.62
2022-12-08T17:19:31.593Z,2.61
2022-12-08T17:21:59.601Z,2.58
2022-12-08T17:24:29.253Z,2.59
2022-12-08T17:26:58.811Z,2.10
2022-12-08T17:29:26.842Z,2.54
2022-12-08T17:31:54.803Z,2.52
2022-12-08T17:34:22.682Z,2.47
2022-12-08T17:36:51.085Z,2.50
2022-12-08T17:39:19.539Z,2.54
2022-12-08T17:41:48.031Z,2.51
2022-12-08T17:44:19.363Z,2.54
2022-12-08T17:46:53.166Z,2.27
2022-12-08T17:49:26.354Z,2.53
2022-12-08T17:51:57.889Z,2.52
2022-12-08T17:54:27.161Z,2.48
2022-12-08T17:56:59.767Z,2.48
2022-12-08T17:59:29.352Z,2.51
2022-12-08T18:01:58.505Z,2.24
2022-12-08T18:04:28.999Z,2.37
2022-12-08T18:07:00.319Z,2.44
2022-12-08T18:09:31.376Z,2.38
2022-12-08T18:11:59.554Z,2.35
2022-12-08T18:14:27.824Z,2.39
2022-12-08T18:16:56.159Z,2.34
2022-12-08T18:19:24.292Z,2.16
2022-12-08T18:21:52.287Z,2.30
2022-12-08T18:24:23.675Z,2.32
2022-12-08T18:26:52.708Z,2.32
2022-12-08T18:29:22.703Z,2.26
2022-12-08T18:31:51.811Z,2.27
2022-12-08T18:34:19.860Z,2.01
2022-12-08T18:36:48.985Z,2.27
2022-12-08T18:39:30.493Z,2.26
2022-12-08T18:42:02.608Z,1.93
2022-12-08T18:44:30.732Z,2.20
2022-12-08T18:46:58.722Z,2.02
2022-12-08T18:49:28.224Z,1.95
2022-12-08T18:51:59.816Z,2.25
2022-12-08T18:54:57.777Z,2.23
2022-12-08T18:57:17.604Z,2.26
2022-12-08T18:59:45.957Z,2.14
2022-12-08T19:02:14.974Z,2.05
2022-12-08T19:04:44.460Z,2.29
2022-12-08T19:07:20.022Z,2.04
2022-12-08T19:09:51.454Z,2.29
2022-12-08T19:12:19.502Z,2.28
2022-12-08T19:14:47.609Z,2.32
2022-12-08T19:17:15.902Z,2.29
2022-12-08T19:19:43.846Z,2.28
2022-12-08T19:22:12.416Z,2.29
2022-12-08T19:24:40.786Z,1.79
2022-12-08T19:27:08.898Z,2.19
2022-12-08T19:29:36.792Z,2.22
2022-12-08T19:32:05.585Z,2.20
2022-12-08T19:34:33.567Z,2.19
2022-12-08T19:37:01.438Z,2.21
2022-12-08T19:39:47.957Z,1.97
2022-12-08T19:42:38.457Z,2.20
2022-12-08T19:45:14.955Z,1.97
2022-12-08T19:47:43.099Z,2.12
2022-12-08T19:50:32.230Z,2.14
2022-12-08T19:53:01.204Z,1.70
2022-12-08T19:55:29.712Z,1.94
2022-12-08T19:57:58.686Z,2.13
2022-12-08T20:00:26.803Z,1.89
2022-12-08T20:02:56.469Z,2.11
2022-12-08T20:05:25.095Z,1.94
2022-12-08T20:07:55.904Z,2.09
2022-12-08T20:10:29.638Z,2.04
2022-12-08T20:13:16.394Z,2.05
2022-12-08T20:15:45.410Z,2.04
2022-12-08T20:18:15.369Z,2.02
2022-12-08T20:20:45.165Z,1.79
2022-12-08T20:23:15.666Z,1.99
2022-12-08T20:25:46.285Z,1.95
2022-12-08T20:28:14.628Z,1.95
2022-12-08T20:30:45.383Z,1.80
2022-12-08T20:33:14.966Z,1.93
2022-12-08T20:35:43.763Z,1.53
2022-12-08T20:38:12.892Z,1.74
2022-12-08T20:40:44.615Z,1.84
2022-12-08T20:43:12.981Z,1.73
2022-12-08T20:45:40.984Z,1.73
2022-12-08T20:48:09.046Z,1.98
2022-12-08T20:50:37.090Z,1.97
2022-12-08T20:53:05.389Z,1.91
2022-12-08T20:55:35.742Z,1.72
2022-12-08T20:58:03.829Z,1.97
2022-12-08T21:00:31.973Z,1.95
2022-12-08T21:03:01.226Z,1.99
2022-12-08T21:05:31.463Z,1.99
2022-12-08T21:08:00.392Z,1.97
2022-12-08T21:10:28.876Z,2.00
2022-12-08T21:12:57.851Z,2.02
2022-12-08T21:15:28.273Z,2.01
2022-12-08T21:17:59.189Z,2.00
2022-12-08T21:20:28.890Z,2.01
2022-12-08T21:22:58.528Z,1.81
2022-12-08T21:25:27.649Z,1.35
2022-12-08T21:28:00.208Z,2.03
2022-12-08T21:30:34.563Z,2.06
2022-12-08T21:33:02.800Z,1.98
2022-12-08T21:35:32.206Z,2.02
2022-12-08T21:38:00.608Z,2.06
2022-12-08T21:40:28.950Z,1.81
2022-12-08T21:42:57.366Z,2.07
2022-12-08T21:45:25.700Z,2.05
2022-12-08T21:47:54.276Z,2.09
2022-12-08T21:50:22.484Z,2.04
2022-12-08T21:52:51.010Z,2.07
2022-12-08T21:55:20.395Z,2.11
2022-12-08T21:57:48.489Z,2.11
2022-12-08T22:00:18.127Z,2.07
2022-12-08T22:02:47.037Z,2.10
2022-12-08T22:05:16.125Z,2.03
2022-12-08T22:07:44.688Z,2.11
2022-12-08T22:10:12.773Z,2.10
2022-12-08T22:12:41.077Z,2.16
2022-12-08T22:15:11.402Z,1.96
2022-12-08T22:17:41.714Z,2.18
2022-12-08T22:20:14.118Z,1.89
2022-12-08T22:22:42.702Z,2.17
2022-12-08T22:25:12.137Z,2.14
2022-12-08T22:27:41.808Z,1.89
2022-12-08T22:30:11.857Z,1.90
2022-12-08T22:32:40.332Z,2.02
2022-12-08T22:35:08.951Z,2.01
2022-12-08T22:37:38.302Z,2.09
2022-12-08T22:40:07.827Z,2.06
2022-12-08T22:42:36.236Z,2.07
2022-12-08T22:45:04.575Z,2.08
2022-12-08T22:47:32.692Z,1.84
2022-12-08T22:50:01.060Z,2.11
2022-12-08T22:52:29.036Z,1.79
2022-12-08T22:54:59.708Z,2.08
2022-12-08T22:57:29.071Z,2.10
2022-12-08T22:59:57.429Z,2.13
2022-12-08T23:02:25.471Z,1.95
2022-12-08T23:04:57.869Z,2.18
2022-12-08T23:07:26.127Z,2.22
2022-12-08T23:09:54.255Z,2.21
2022-12-08T23:12:22.546Z,1.95
2022-12-08T23:14:50.598Z,2.27
2022-12-08T23:17:18.567Z,2.24
2022-12-08T23:19:47.366Z,2.08
2022-12-08T23:22:15.441Z,2.26
2022-12-08T23:24:43.897Z,1.96
2022-12-08T23:27:11.905Z,1.99
2022-12-08T23:29:39.824Z,2.23
2022-12-08T23:32:07.921Z,2.07
2022-12-08T23:34:36.337Z,2.04
2022-12-08T23:37:04.437Z,1.42
2022-12-08T23:39:32.486Z,2.07
2022-12-08T23:42:00.675Z,2.28
2022-12-08T23:44:28.708Z,2.27
2022-12-08T23:46:57.292Z,2.22
2022-12-08T23:49:25.728Z,2.26
2022-12-08T23:51:54.011Z,2.30
2022-12-08T23:54:21.989Z,2.31
2022-12-08T23:56:50.164Z,2.33
2022-12-08T23:59:18.237Z,2.40
